sensor_id;sensor_type;location;lat;lon;timestamp;P1;durP1;ratioP1;P2;durP2;ratioP2
6374;SDS011;35400;45.472;-122.822;2022-10-17T00:00:55;14.45;;;6.60;;
6374;SDS011;35400;45.472;-122.822;2022-10-17T00:03:22;13.18;;;6.90;;
6374;SDS011;35400;45.472;-122.822;2022-10-17T00:05:49;13.02;;;6.38;;
6374;SDS011;35400;45.472;-122.822;2022-10-17T00:08:16;11.48;;;6.57;;
6374;SDS011;35400;45.472;-122.822;2022-10-17T00:10:44;9.82;;;6.93;;
6374;SDS011;35400;45.472;-122.822;2022-10-17T00:13:20;14.63;;;7.10;;
6374;SDS011;35400;45.472;-122.822;2022-10-17T00:15:46;12.73;;;7.90;;
6374;SDS011;35400;45.472;-122.822;2022-10-17T00:18:13;14.80;;;7.65;;
6374;SDS011;35400;45.472;-122.822;2022-10-17T00:20:40;14.35;;;7.32;;
6374;SDS011;35400;45.472;-122.822;2022-10-17T00:23:07;11.98;;;7.57;;
6374;SDS011;35400;45.472;-122.822;2022-10-17T00:25:33;14.13;;;7.88;;
6374;SDS011;35400;45.472;-122.822;2022-10-17T00:28:01;10.88;;;6.57;;
6374;SDS011;35400;45.472;-122.822;2022-10-17T00:30:28;12.32;;;7.32;;
6374;SDS011;35400;45.472;-122.822;2022-10-17T00:32:57;11.75;;;7.50;;
6374;SDS011;35400;45.472;-122.822;2022-10-17T00:35:24;13.52;;;7.47;;
6374;SDS011;35400;45.472;-122.822;2022-10-17T00:37:50;16.77;;;8.55;;
6374;SDS011;35400;45.472;-122.822;2022-10-17T00:40:17;11.88;;;7.10;;
6374;SDS011;35400;45.472;-122.822;2022-10-17T00:42:45;12.57;;;7.95;;
6374;SDS011;35400;45.472;-122.822;2022-10-17T00:45:23;14.25;;;7.95;;
6374;SDS011;35400;45.472;-122.822;2022-10-17T00:47:55;17.67;;;8.00;;
6374;SDS011;35400;45.472;-122.822;2022-10-17T00:50:26;12.27;;;6.95;;
6374;SDS011;35400;45.472;-122.822;2022-10-17T00:52:55;12.32;;;7.65;;
6374;SDS011;35400;45.472;-122.822;2022-10-17T00:55:27;17.00;;;7.88;;
6374;SDS011;35400;45.472;-122.822;2022-10-17T00:57:57;15.10;;;8.57;;
6374;SDS011;35400;45.472;-122.822;2022-10-17T01:00:27;14.23;;;8.23;;
6374;SDS011;35400;45.472;-122.822;2022-10-17T01:02:54;14.38;;;8.52;;
6374;SDS011;35400;45.472;-122.822;2022-10-17T01:05:21;12.70;;;8.75;;
6374;SDS011;35400;45.472;-122.822;2022-10-17T01:07:48;14.20;;;8.82;;
6374;SDS011;35400;45.472;-122.822;2022-10-17T01:10:17;11.38;;;8.40;;
6374;SDS011;35400;45.472;-122.822;2022-10-17T01:12:51;14.50;;;8.65;;
6374;SDS011;35400;45.472;-122.822;2022-10-17T01:15:38;14.32;;;8.70;;
6374;SDS011;35400;45.472;-122.822;2022-10-17T01:21:42;11.00;;;8.07;;
6374;SDS011;35400;45.472;-122.822;2022-10-17T01:37:21;13.75;;;9.88;;
6374;SDS011;35400;45.472;-122.822;2022-10-17T01:39:56;11.70;;;8.48;;
6374;SDS011;35400;45.472;-122.822;2022-10-17T01:42:37;11.27;;;8.55;;
6374;SDS011;35400;45.472;-122.822;2022-10-17T01:45:17;13.38;;;8.65;;
6374;SDS011;35400;45.472;-122.822;2022-10-17T01:48:08;17.58;;;9.07;;
6374;SDS011;35400;45.472;-122.822;2022-10-17T01:50:42;16.88;;;9.75;;
6374;SDS011;35400;45.472;-122.822;2022-10-17T01:53:15;16.17;;;9.25;;
6374;SDS011;35400;45.472;-122.822;2022-10-17T01:55:47;16.77;;;9.45;;
6374;SDS011;35400;45.472;-122.822;2022-10-17T01:58:51;17.10;;;9.50;;
6374;SDS011;35400;45.472;-122.822;2022-10-17T02:01:16;15.02;;;9.27;;
6374;SDS011;35400;45.472;-122.822;2022-10-17T02:03:44;14.07;;;9.20;;
6374;SDS011;35400;45.472;-122.822;2022-10-17T02:06:14;18.48;;;9.65;;
6374;SDS011;35400;45.472;-122.822;2022-10-17T02:08:45;17.55;;;9.70;;
6374;SDS011;35400;45.472;-122.822;2022-10-17T02:11:15;13.43;;;8.70;;
6374;SDS011;35400;45.472;-122.822;2022-10-17T02:22:06;12.75;;;9.10;;
6374;SDS011;35400;45.472;-122.822;2022-10-17T02:29:27;12.25;;;9.18;;
6374;SDS011;35400;45.472;-122.822;2022-10-17T02:32:34;15.95;;;10.48;;
6374;SDS011;35400;45.472;-122.822;2022-10-17T02:34:58;15.77;;;10.15;;
6374;SDS011;35400;45.472;-122.822;2022-10-17T02:37:27;13.13;;;10.05;;
6374;SDS011;35400;45.472;-122.822;2022-10-17T02:39:56;15.55;;;10.70;;
6374;SDS011;35400;45.472;-122.822;2022-10-17T02:42:25;12.98;;;10.15;;
6374;SDS011;35400;45.472;-122.822;2022-10-17T02:44:56;15.52;;;10.40;;
6374;SDS011;35400;45.472;-122.822;2022-10-17T02:50:05;14.53;;;9.60;;
6374;SDS011;35400;45.472;-122.822;2022-10-17T02:55:03;19.17;;;9.63;;
6374;SDS011;35400;45.472;-122.822;2022-10-17T02:57:38;14.07;;;10.57;;
6374;SDS011;35400;45.472;-122.822;2022-10-17T03:00:10;15.33;;;10.37;;
6374;SDS011;35400;45.472;-122.822;2022-10-17T03:05:08;15.60;;;10.23;;
6374;SDS011;35400;45.472;-122.822;2022-10-17T03:07:37;13.38;;;9.07;;
6374;SDS011;35400;45.472;-122.822;2022-10-17T03:10:04;15.52;;;10.05;;
6374;SDS011;35400;45.472;-122.822;2022-10-17T03:12:32;16.87;;;9.67;;
6374;SDS011;35400;45.472;-122.822;2022-10-17T03:14:59;16.47;;;10.20;;
6374;SDS011;35400;45.472;-122.822;2022-10-17T03:17:26;12.60;;;9.43;;
6374;SDS011;35400;45.472;-122.822;2022-10-17T03:19:53;13.77;;;9.23;;
6374;SDS011;35400;45.472;-122.822;2022-10-17T03:22:20;16.43;;;9.37;;
6374;SDS011;35400;45.472;-122.822;2022-10-17T03:24:46;14.90;;;10.17;;
6374;SDS011;35400;45.472;-122.822;2022-10-17T03:27:13;14.63;;;10.07;;
6374;SDS011;35400;45.472;-122.822;2022-10-17T03:29:40;16.57;;;10.13;;
6374;SDS011;35400;45.472;-122.822;2022-10-17T03:32:08;14.47;;;10.80;;
6374;SDS011;35400;45.472;-122.822;2022-10-17T03:34:35;17.73;;;10.87;;
6374;SDS011;35400;45.472;-122.822;2022-10-17T03:37:02;15.43;;;10.53;;
6374;SDS011;35400;45.472;-122.822;2022-10-17T03:39:32;16.50;;;9.77;;
6374;SDS011;35400;45.472;-122.822;2022-10-17T03:41:58;14.20;;;10.10;;
6374;SDS011;35400;45.472;-122.822;2022-10-17T03:44:25;13.30;;;10.30;;
6374;SDS011;35400;45.472;-122.822;2022-10-17T03:46:52;15.10;;;10.10;;
6374;SDS011;35400;45.472;-122.822;2022-10-17T03:49:19;13.37;;;10.17;;
6374;SDS011;35400;45.472;-122.822;2022-10-17T03:51:46;13.33;;;10.80;;
6374;SDS011;35400;45.472;-122.822;2022-10-17T03:54:15;13.70;;;10.53;;
6374;SDS011;35400;45.472;-122.822;2022-10-17T03:56:42;17.27;;;10.50;;
6374;SDS011;35400;45.472;-122.822;2022-10-17T03:59:12;16.33;;;10.40;;
6374;SDS011;35400;45.472;-122.822;2022-10-17T04:01:42;18.50;;;10.33;;
6374;SDS011;35400;45.472;-122.822;2022-10-17T04:04:10;17.07;;;10.43;;
6374;SDS011;35400;45.472;-122.822;2022-10-17T04:06:37;14.80;;;10.37;;
6374;SDS011;35400;45.472;-122.822;2022-10-17T04:09:05;14.30;;;9.97;;
6374;SDS011;35400;45.472;-122.822;2022-10-17T04:12:07;17.90;;;10.30;;
6374;SDS011;35400;45.472;-122.822;2022-10-17T04:14:36;17.97;;;10.47;;
6374;SDS011;35400;45.472;-122.822;2022-10-17T04:17:03;13.67;;;10.20;;
6374;SDS011;35400;45.472;-122.822;2022-10-17T04:19:31;15.97;;;10.23;;
6374;SDS011;35400;45.472;-122.822;2022-10-17T04:21:58;19.50;;;11.07;;
6374;SDS011;35400;45.472;-122.822;2022-10-17T04:24:27;15.73;;;10.37;;
6374;SDS011;35400;45.472;-122.822;2022-10-17T04:27:06;15.87;;;10.33;;
6374;SDS011;35400;45.472;-122.822;2022-10-17T04:29:37;13.37;;;9.60;;
6374;SDS011;35400;45.472;-122.822;2022-10-17T04:32:24;15.40;;;10.83;;
6374;SDS011;35400;45.472;-122.822;2022-10-17T04:34:58;15.93;;;10.20;;
6374;SDS011;35400;45.472;-122.822;2022-10-17T04:37:27;16.30;;;10.50;;
6374;SDS011;35400;45.472;-122.822;2022-10-17T04:39:56;14.83;;;10.07;;
6374;SDS011;35400;45.472;-122.822;2022-10-17T04:42:22;17.93;;;10.63;;
6374;SDS011;35400;45.472;-122.822;2022-10-17T04:44:51;17.80;;;9.97;;
6374;SDS011;35400;45.472;-122.822;2022-10-17T04:47:18;15.03;;;10.43;;
6374;SDS011;35400;45.472;-122.822;2022-10-17T04:49:45;17.07;;;10.70;;
6374;SDS011;35400;45.472;-122.822;2022-10-17T04:52:14;17.00;;;9.97;;
6374;SDS011;35400;45.472;-122.822;2022-10-17T04:54:48;17.10;;;10.47;;
6374;SDS011;35400;45.472;-122.822;2022-10-17T04:57:16;16.30;;;10.73;;
6374;SDS011;35400;45.472;-122.822;2022-10-17T05:00:03;15.10;;;9.83;;
6374;SDS011;35400;45.472;-122.822;2022-10-17T05:02:56;18.00;;;11.10;;
6374;SDS011;35400;45.472;-122.822;2022-10-17T05:05:22;15.20;;;10.57;;
6374;SDS011;35400;45.472;-122.822;2022-10-17T05:07:52;16.53;;;10.20;;
6374;SDS011;35400;45.472;-122.822;2022-10-17T05:10:22;15.63;;;10.10;;
6374;SDS011;35400;45.472;-122.822;2022-10-17T05:12:51;17.67;;;10.17;;
6374;SDS011;35400;45.472;-122.822;2022-10-17T05:15:21;12.97;;;10.60;;
6374;SDS011;35400;45.472;-122.822;2022-10-17T05:17:52;13.80;;;10.40;;
6374;SDS011;35400;45.472;-122.822;2022-10-17T05:20:21;15.53;;;9.93;;
6374;SDS011;35400;45.472;-122.822;2022-10-17T05:22:49;15.07;;;9.57;;
6374;SDS011;35400;45.472;-122.822;2022-10-17T05:25:16;16.80;;;9.53;;
6374;SDS011;35400;45.472;-122.822;2022-10-17T05:27:43;18.57;;;10.80;;
6374;SDS011;35400;45.472;-122.822;2022-10-17T05:30:10;15.47;;;9.00;;
6374;SDS011;35400;45.472;-122.822;2022-10-17T05:32:39;17.17;;;9.70;;
6374;SDS011;35400;45.472;-122.822;2022-10-17T05:35:07;16.47;;;10.77;;
6374;SDS011;35400;45.472;-122.822;2022-10-17T05:37:35;21.50;;;10.07;;
6374;SDS011;35400;45.472;-122.822;2022-10-17T05:40:03;17.50;;;10.63;;
6374;SDS011;35400;45.472;-122.822;2022-10-17T05:42:30;15.97;;;10.07;;
6374;SDS011;35400;45.472;-122.822;2022-10-17T05:44:57;13.70;;;9.67;;
6374;SDS011;35400;45.472;-122.822;2022-10-17T05:47:24;16.63;;;10.17;;
6374;SDS011;35400;45.472;-122.822;2022-10-17T05:49:51;13.63;;;9.93;;
6374;SDS011;35400;45.472;-122.822;2022-10-17T05:52:24;15.00;;;9.80;;
6374;SDS011;35400;45.472;-122.822;2022-10-17T05:55:11;14.27;;;9.77;;
6374;SDS011;35400;45.472;-122.822;2022-10-17T05:57:38;17.50;;;10.30;;
6374;SDS011;35400;45.472;-122.822;2022-10-17T06:00:09;15.03;;;10.20;;
6374;SDS011;35400;45.472;-122.822;2022-10-17T06:02:39;16.70;;;10.77;;
6374;SDS011;35400;45.472;-122.822;2022-10-17T06:05:08;17.13;;;10.03;;
6374;SDS011;35400;45.472;-122.822;2022-10-17T06:07:35;17.80;;;10.60;;
6374;SDS011;35400;45.472;-122.822;2022-10-17T06:10:03;13.47;;;9.70;;
6374;SDS011;35400;45.472;-122.822;2022-10-17T06:12:31;14.07;;;9.23;;
6374;SDS011;35400;45.472;-122.822;2022-10-17T06:14:58;16.67;;;10.10;;
6374;SDS011;35400;45.472;-122.822;2022-10-17T06:17:25;19.03;;;10.40;;
6374;SDS011;35400;45.472;-122.822;2022-10-17T06:19:52;16.17;;;9.73;;
6374;SDS011;35400;45.472;-122.822;2022-10-17T06:22:19;17.93;;;9.67;;
6374;SDS011;35400;45.472;-122.822;2022-10-17T06:24:46;13.57;;;9.77;;
6374;SDS011;35400;45.472;-122.822;2022-10-17T06:27:13;13.90;;;8.63;;
6374;SDS011;35400;45.472;-122.822;2022-10-17T06:29:40;17.03;;;9.53;;
6374;SDS011;35400;45.472;-122.822;2022-10-17T06:32:07;13.70;;;9.20;;
6374;SDS011;35400;45.472;-122.822;2022-10-17T06:34:34;15.83;;;9.87;;
6374;SDS011;35400;45.472;-122.822;2022-10-17T06:37:01;12.73;;;8.67;;
6374;SDS011;35400;45.472;-122.822;2022-10-17T06:39:28;14.67;;;9.50;;
6374;SDS011;35400;45.472;-122.822;2022-10-17T06:42:05;13.93;;;9.43;;
6374;SDS011;35400;45.472;-122.822;2022-10-17T06:44:58;11.93;;;8.83;;
6374;SDS011;35400;45.472;-122.822;2022-10-17T06:47:52;14.30;;;9.70;;
6374;SDS011;35400;45.472;-122.822;2022-10-17T06:50:39;16.33;;;8.87;;
6374;SDS011;35400;45.472;-122.822;2022-10-17T06:53:16;14.93;;;10.20;;
6374;SDS011;35400;45.472;-122.822;2022-10-17T06:55:51;16.27;;;9.27;;
6374;SDS011;35400;45.472;-122.822;2022-10-17T06:58:43;15.37;;;9.03;;
6374;SDS011;35400;45.472;-122.822;2022-10-17T07:01:29;13.20;;;9.80;;
6374;SDS011;35400;45.472;-122.822;2022-10-17T07:03:58;15.60;;;10.20;;
6374;SDS011;35400;45.472;-122.822;2022-10-17T07:06:26;15.43;;;9.47;;
6374;SDS011;35400;45.472;-122.822;2022-10-17T07:08:55;14.80;;;9.93;;
6374;SDS011;35400;45.472;-122.822;2022-10-17T07:11:22;13.13;;;9.40;;
6374;SDS011;35400;45.472;-122.822;2022-10-17T07:13:51;16.47;;;9.20;;
6374;SDS011;35400;45.472;-122.822;2022-10-17T07:16:18;16.87;;;9.60;;
6374;SDS011;35400;45.472;-122.822;2022-10-17T07:18:50;14.37;;;9.73;;
6374;SDS011;35400;45.472;-122.822;2022-10-17T07:21:19;14.90;;;9.40;;
6374;SDS011;35400;45.472;-122.822;2022-10-17T07:23:46;16.77;;;9.10;;
6374;SDS011;35400;45.472;-122.822;2022-10-17T07:26:13;14.57;;;9.20;;
6374;SDS011;35400;45.472;-122.822;2022-10-17T07:28:42;14.63;;;8.97;;
6374;SDS011;35400;45.472;-122.822;2022-10-17T07:31:21;14.80;;;8.60;;
6374;SDS011;35400;45.472;-122.822;2022-10-17T07:33:48;15.70;;;9.43;;
6374;SDS011;35400;45.472;-122.822;2022-10-17T07:36:15;15.23;;;9.27;;
6374;SDS011;35400;45.472;-122.822;2022-10-17T07:38:43;11.57;;;8.80;;
6374;SDS011;35400;45.472;-122.822;2022-10-17T07:41:10;14.73;;;8.93;;
6374;SDS011;35400;45.472;-122.822;2022-10-17T07:43:38;12.90;;;8.80;;
6374;SDS011;35400;45.472;-122.822;2022-10-17T07:46:08;13.67;;;9.33;;
6374;SDS011;35400;45.472;-122.822;2022-10-17T07:48:37;15.17;;;9.67;;
6374;SDS011;35400;45.472;-122.822;2022-10-17T07:51:05;12.77;;;9.20;;
6374;SDS011;35400;45.472;-122.822;2022-10-17T07:53:34;13.83;;;9.23;;
6374;SDS011;35400;45.472;-122.822;2022-10-17T07:56:06;13.33;;;8.93;;
6374;SDS011;35400;45.472;-122.822;2022-10-17T07:58:34;12.90;;;9.70;;
6374;SDS011;35400;45.472;-122.822;2022-10-17T08:01:10;13.20;;;9.10;;
6374;SDS011;35400;45.472;-122.822;2022-10-17T08:03:47;15.13;;;8.97;;
6374;SDS011;35400;45.472;-122.822;2022-10-17T08:06:14;17.87;;;9.83;;
6374;SDS011;35400;45.472;-122.822;2022-10-17T08:08:41;16.20;;;9.83;;
6374;SDS011;35400;45.472;-122.822;2022-10-17T08:11:09;13.67;;;8.87;;
6374;SDS011;35400;45.472;-122.822;2022-10-17T08:13:37;16.07;;;9.93;;
6374;SDS011;35400;45.472;-122.822;2022-10-17T08:16:05;14.83;;;8.87;;
6374;SDS011;35400;45.472;-122.822;2022-10-17T08:18:35;18.50;;;9.10;;
6374;SDS011;35400;45.472;-122.822;2022-10-17T08:21:04;16.43;;;9.80;;
6374;SDS011;35400;45.472;-122.822;2022-10-17T08:23:32;16.17;;;9.57;;
6374;SDS011;35400;45.472;-122.822;2022-10-17T08:26:01;15.17;;;8.97;;
6374;SDS011;35400;45.472;-122.822;2022-10-17T08:28:29;12.93;;;8.40;;
6374;SDS011;35400;45.472;-122.822;2022-10-17T08:31:03;12.83;;;9.40;;
6374;SDS011;35400;45.472;-122.822;2022-10-17T08:33:37;14.63;;;9.50;;
6374;SDS011;35400;45.472;-122.822;2022-10-17T08:36:05;13.23;;;9.23;;
6374;SDS011;35400;45.472;-122.822;2022-10-17T08:38:33;17.17;;;9.73;;
6374;SDS011;35400;45.472;-122.822;2022-10-17T08:41:03;12.43;;;9.03;;
6374;SDS011;35400;45.472;-122.822;2022-10-17T08:46:14;13.53;;;9.23;;
6374;SDS011;35400;45.472;-122.822;2022-10-17T08:48:42;14.10;;;9.37;;
6374;SDS011;35400;45.472;-122.822;2022-10-17T08:51:15;15.20;;;9.23;;
6374;SDS011;35400;45.472;-122.822;2022-10-17T08:54:04;13.37;;;8.70;;
6374;SDS011;35400;45.472;-122.822;2022-10-17T08:56:41;15.17;;;10.00;;
6374;SDS011;35400;45.472;-122.822;2022-10-17T08:59:10;14.80;;;9.27;;
6374;SDS011;35400;45.472;-122.822;2022-10-17T09:04:17;13.90;;;9.60;;
6374;SDS011;35400;45.472;-122.822;2022-10-17T09:14:52;12.90;;;9.50;;
6374;SDS011;35400;45.472;-122.822;2022-10-17T09:22:51;12.70;;;9.13;;
6374;SDS011;35400;45.472;-122.822;2022-10-17T09:25:25;16.33;;;9.73;;
6374;SDS011;35400;45.472;-122.822;2022-10-17T09:30:37;15.70;;;8.77;;
6374;SDS011;35400;45.472;-122.822;2022-10-17T09:33:14;14.43;;;10.23;;
6374;SDS011;35400;45.472;-122.822;2022-10-17T09:35:43;13.73;;;8.83;;
6374;SDS011;35400;45.472;-122.822;2022-10-17T09:38:21;13.47;;;9.63;;
6374;SDS011;35400;45.472;-122.822;2022-10-17T09:40:53;11.37;;;8.83;;
6374;SDS011;35400;45.472;-122.822;2022-10-17T09:43:22;13.67;;;9.20;;
6374;SDS011;35400;45.472;-122.822;2022-10-17T09:46:03;13.63;;;10.13;;
6374;SDS011;35400;45.472;-122.822;2022-10-17T09:48:45;14.47;;;9.63;;
6374;SDS011;35400;45.472;-122.822;2022-10-17T09:51:17;13.77;;;8.87;;
6374;SDS011;35400;45.472;-122.822;2022-10-17T09:53:49;15.03;;;9.30;;
6374;SDS011;35400;45.472;-122.822;2022-10-17T09:56:20;14.17;;;9.17;;
6374;SDS011;35400;45.472;-122.822;2022-10-17T09:58:48;15.57;;;9.40;;
6374;SDS011;35400;45.472;-122.822;2022-10-17T10:01:29;14.47;;;9.43;;
6374;SDS011;35400;45.472;-122.822;2022-10-17T10:04:15;14.83;;;9.17;;
6374;SDS011;35400;45.472;-122.822;2022-10-17T10:07:02;12.67;;;9.37;;
6374;SDS011;35400;45.472;-122.822;2022-10-17T10:09:31;13.13;;;8.87;;
6374;SDS011;35400;45.472;-122.822;2022-10-17T10:12:00;12.17;;;8.73;;
6374;SDS011;35400;45.472;-122.822;2022-10-17T10:14:32;16.30;;;10.00;;
6374;SDS011;35400;45.472;-122.822;2022-10-17T10:17:01;14.83;;;9.40;;
6374;SDS011;35400;45.472;-122.822;2022-10-17T10:22:21;12.70;;;8.73;;
6374;SDS011;35400;45.472;-122.822;2022-10-17T10:25:06;15.37;;;9.63;;
6374;SDS011;35400;45.472;-122.822;2022-10-17T10:27:39;11.47;;;8.93;;
6374;SDS011;35400;45.472;-122.822;2022-10-17T10:30:15;15.37;;;9.10;;
6374;SDS011;35400;45.472;-122.822;2022-10-17T10:32:44;12.63;;;9.70;;
6374;SDS011;35400;45.472;-122.822;2022-10-17T10:35:20;15.43;;;9.63;;
6374;SDS011;35400;45.472;-122.822;2022-10-17T10:37:48;13.17;;;9.27;;
6374;SDS011;35400;45.472;-122.822;2022-10-17T10:40:25;15.33;;;9.67;;
6374;SDS011;35400;45.472;-122.822;2022-10-17T10:43:25;13.00;;;9.03;;
6374;SDS011;35400;45.472;-122.822;2022-10-17T10:45:53;14.00;;;9.53;;
6374;SDS011;35400;45.472;-122.822;2022-10-17T10:48:21;14.83;;;9.43;;
6374;SDS011;35400;45.472;-122.822;2022-10-17T10:50:56;14.83;;;9.23;;
6374;SDS011;35400;45.472;-122.822;2022-10-17T10:53:34;11.73;;;8.87;;
6374;SDS011;35400;45.472;-122.822;2022-10-17T10:56:17;12.40;;;8.67;;
6374;SDS011;35400;45.472;-122.822;2022-10-17T11:04:40;12.90;;;9.90;;
6374;SDS011;35400;45.472;-122.822;2022-10-17T11:07:29;14.90;;;10.03;;
6374;SDS011;35400;45.472;-122.822;2022-10-17T11:10:11;15.57;;;8.87;;
6374;SDS011;35400;45.472;-122.822;2022-10-17T11:15:30;17.40;;;10.00;;
6374;SDS011;35400;45.472;-122.822;2022-10-17T11:18:29;17.77;;;9.83;;
6374;SDS011;35400;45.472;-122.822;2022-10-17T11:27:00;16.50;;;9.50;;
6374;SDS011;35400;45.472;-122.822;2022-10-17T11:29:29;13.80;;;9.43;;
6374;SDS011;35400;45.472;-122.822;2022-10-17T11:32:01;14.90;;;9.90;;
6374;SDS011;35400;45.472;-122.822;2022-10-17T11:34:46;15.37;;;10.10;;
6374;SDS011;35400;45.472;-122.822;2022-10-17T11:37:24;11.17;;;9.27;;
6374;SDS011;35400;45.472;-122.822;2022-10-17T11:42:33;13.87;;;9.83;;
6374;SDS011;35400;45.472;-122.822;2022-10-17T11:45:18;13.20;;;9.57;;
6374;SDS011;35400;45.472;-122.822;2022-10-17T11:47:52;16.40;;;9.17;;
6374;SDS011;35400;45.472;-122.822;2022-10-17T11:50:37;12.93;;;8.77;;
6374;SDS011;35400;45.472;-122.822;2022-10-17T11:55:41;12.13;;;8.80;;
6374;SDS011;35400;45.472;-122.822;2022-10-17T11:58:32;18.07;;;10.13;;
6374;SDS011;35400;45.472;-122.822;2022-10-17T12:10:17;16.73;;;9.97;;
6374;SDS011;35400;45.472;-122.822;2022-10-17T12:13:23;16.47;;;9.93;;
6374;SDS011;35400;45.472;-122.822;2022-10-17T12:15:54;14.37;;;9.57;;
6374;SDS011;35400;45.472;-122.822;2022-10-17T12:18:25;15.60;;;9.60;;
6374;SDS011;35400;45.472;-122.822;2022-10-17T12:20:55;13.93;;;9.50;;
6374;SDS011;35400;45.472;-122.822;2022-10-17T12:23:24;13.87;;;9.37;;
6374;SDS011;35400;45.472;-122.822;2022-10-17T12:25:54;13.30;;;9.10;;
6374;SDS011;35400;45.472;-122.822;2022-10-17T12:33:50;16.93;;;10.00;;
6374;SDS011;35400;45.472;-122.822;2022-10-17T12:38:48;15.73;;;9.07;;
6374;SDS011;35400;45.472;-122.822;2022-10-17T12:46:50;11.10;;;9.40;;
6374;SDS011;35400;45.472;-122.822;2022-10-17T12:49:21;13.80;;;9.40;;
6374;SDS011;35400;45.472;-122.822;2022-10-17T12:55:00;14.20;;;9.83;;
6374;SDS011;35400;45.472;-122.822;2022-10-17T12:58:01;14.80;;;9.60;;
6374;SDS011;35400;45.472;-122.822;2022-10-17T13:00:36;12.77;;;8.97;;
6374;SDS011;35400;45.472;-122.822;2022-10-17T13:03:27;14.83;;;9.27;;
6374;SDS011;35400;45.472;-122.822;2022-10-17T13:06:04;15.50;;;9.63;;
6374;SDS011;35400;45.472;-122.822;2022-10-17T13:08:36;15.83;;;10.33;;
6374;SDS011;35400;45.472;-122.822;2022-10-17T13:11:07;13.80;;;9.83;;
6374;SDS011;35400;45.472;-122.822;2022-10-17T13:13:43;19.03;;;10.27;;
6374;SDS011;35400;45.472;-122.822;2022-10-17T13:16:33;13.30;;;9.47;;
6374;SDS011;35400;45.472;-122.822;2022-10-17T13:19:14;15.83;;;10.23;;
6374;SDS011;35400;45.472;-122.822;2022-10-17T13:21:51;14.20;;;9.47;;
6374;SDS011;35400;45.472;-122.822;2022-10-17T13:24:33;13.47;;;9.73;;
6374;SDS011;35400;45.472;-122.822;2022-10-17T13:27:02;17.60;;;10.27;;
6374;SDS011;35400;45.472;-122.822;2022-10-17T13:29:29;17.37;;;10.40;;
6374;SDS011;35400;45.472;-122.822;2022-10-17T13:31:58;15.70;;;10.40;;
6374;SDS011;35400;45.472;-122.822;2022-10-17T13:34:26;12.93;;;8.73;;
6374;SDS011;35400;45.472;-122.822;2022-10-17T13:36:55;17.23;;;10.57;;
6374;SDS011;35400;45.472;-122.822;2022-10-17T13:39:29;16.40;;;10.23;;
6374;SDS011;35400;45.472;-122.822;2022-10-17T13:42:00;13.43;;;10.17;;
6374;SDS011;35400;45.472;-122.822;2022-10-17T13:44:31;17.17;;;10.80;;
6374;SDS011;35400;45.472;-122.822;2022-10-17T13:46:59;13.80;;;9.57;;
6374;SDS011;35400;45.472;-122.822;2022-10-17T13:49:38;16.07;;;10.40;;
6374;SDS011;35400;45.472;-122.822;2022-10-17T13:52:13;16.87;;;9.90;;
6374;SDS011;35400;45.472;-122.822;2022-10-17T13:54:47;13.77;;;10.13;;
6374;SDS011;35400;45.472;-122.822;2022-10-17T13:57:19;14.23;;;10.20;;
6374;SDS011;35400;45.472;-122.822;2022-10-17T13:59:58;17.27;;;10.23;;
6374;SDS011;35400;45.472;-122.822;2022-10-17T14:02:39;16.03;;;9.43;;
6374;SDS011;35400;45.472;-122.822;2022-10-17T14:10:23;16.90;;;11.30;;
6374;SDS011;35400;45.472;-122.822;2022-10-17T14:12:52;14.40;;;10.13;;
6374;SDS011;35400;45.472;-122.822;2022-10-17T14:15:21;14.97;;;9.90;;
6374;SDS011;35400;45.472;-122.822;2022-10-17T14:17:58;16.33;;;10.17;;
6374;SDS011;35400;45.472;-122.822;2022-10-17T14:20:31;17.00;;;10.47;;
6374;SDS011;35400;45.472;-122.822;2022-10-17T14:22:59;14.47;;;9.97;;
6374;SDS011;35400;45.472;-122.822;2022-10-17T14:25:33;17.50;;;10.70;;
6374;SDS011;35400;45.472;-122.822;2022-10-17T14:30:40;19.50;;;11.00;;
6374;SDS011;35400;45.472;-122.822;2022-10-17T14:33:14;16.80;;;10.70;;
6374;SDS011;35400;45.472;-122.822;2022-10-17T14:35:53;16.60;;;11.40;;
6374;SDS011;35400;45.472;-122.822;2022-10-17T14:38:21;18.60;;;10.87;;
6374;SDS011;35400;45.472;-122.822;2022-10-17T14:40:58;14.37;;;10.90;;
6374;SDS011;35400;45.472;-122.822;2022-10-17T14:43:31;14.63;;;10.50;;
6374;SDS011;35400;45.472;-122.822;2022-10-17T14:45:58;18.67;;;10.20;;
6374;SDS011;35400;45.472;-122.822;2022-10-17T14:48:27;13.90;;;10.80;;
6374;SDS011;35400;45.472;-122.822;2022-10-17T14:51:07;15.30;;;10.37;;
6374;SDS011;35400;45.472;-122.822;2022-10-17T14:53:34;15.87;;;11.30;;
6374;SDS011;35400;45.472;-122.822;2022-10-17T14:56:03;16.93;;;11.37;;
6374;SDS011;35400;45.472;-122.822;2022-10-17T14:58:45;14.97;;;10.30;;
6374;SDS011;35400;45.472;-122.822;2022-10-17T15:01:12;17.27;;;10.70;;
6374;SDS011;35400;45.472;-122.822;2022-10-17T15:03:40;16.10;;;10.90;;
6374;SDS011;35400;45.472;-122.822;2022-10-17T15:06:19;20.33;;;12.63;;
6374;SDS011;35400;45.472;-122.822;2022-10-17T15:08:52;20.40;;;11.90;;
6374;SDS011;35400;45.472;-122.822;2022-10-17T15:11:19;19.53;;;12.63;;
6374;SDS011;35400;45.472;-122.822;2022-10-17T15:13:45;19.57;;;11.97;;
6374;SDS011;35400;45.472;-122.822;2022-10-17T15:16:19;16.47;;;11.50;;
6374;SDS011;35400;45.472;-122.822;2022-10-17T15:18:48;17.43;;;11.90;;
6374;SDS011;35400;45.472;-122.822;2022-10-17T15:21:16;20.10;;;11.73;;
6374;SDS011;35400;45.472;-122.822;2022-10-17T15:23:45;19.17;;;10.83;;
6374;SDS011;35400;45.472;-122.822;2022-10-17T15:26:19;17.23;;;12.17;;
6374;SDS011;35400;45.472;-122.822;2022-10-17T15:28:49;19.87;;;12.70;;
6374;SDS011;35400;45.472;-122.822;2022-10-17T15:31:18;19.33;;;13.83;;
6374;SDS011;35400;45.472;-122.822;2022-10-17T15:33:46;16.67;;;12.90;;
6374;SDS011;35400;45.472;-122.822;2022-10-17T15:36:20;19.00;;;12.67;;
6374;SDS011;35400;45.472;-122.822;2022-10-17T15:38:56;19.00;;;13.57;;
6374;SDS011;35400;45.472;-122.822;2022-10-17T15:41:29;21.17;;;13.13;;
6374;SDS011;35400;45.472;-122.822;2022-10-17T15:43:56;19.97;;;13.90;;
6374;SDS011;35400;45.472;-122.822;2022-10-17T15:46:31;20.70;;;13.20;;
6374;SDS011;35400;45.472;-122.822;2022-10-17T15:49:06;19.40;;;14.00;;
6374;SDS011;35400;45.472;-122.822;2022-10-17T15:51:36;19.77;;;14.07;;
6374;SDS011;35400;45.472;-122.822;2022-10-17T15:54:03;18.33;;;14.20;;
6374;SDS011;35400;45.472;-122.822;2022-10-17T15:56:31;21.00;;;14.63;;
6374;SDS011;35400;45.472;-122.822;2022-10-17T15:59:12;21.10;;;14.73;;
6374;SDS011;35400;45.472;-122.822;2022-10-17T16:01:42;25.70;;;15.87;;
6374;SDS011;35400;45.472;-122.822;2022-10-17T16:04:12;25.47;;;14.60;;
6374;SDS011;35400;45.472;-122.822;2022-10-17T16:06:40;19.97;;;13.60;;
6374;SDS011;35400;45.472;-122.822;2022-10-17T16:09:08;23.33;;;14.43;;
6374;SDS011;35400;45.472;-122.822;2022-10-17T16:11:38;22.00;;;14.47;;
6374;SDS011;35400;45.472;-122.822;2022-10-17T16:14:11;20.53;;;13.40;;
6374;SDS011;35400;45.472;-122.822;2022-10-17T16:16:40;19.80;;;13.77;;
6374;SDS011;35400;45.472;-122.822;2022-10-17T16:19:07;18.67;;;12.73;;
6374;SDS011;35400;45.472;-122.822;2022-10-17T16:21:34;20.50;;;14.37;;
6374;SDS011;35400;45.472;-122.822;2022-10-17T16:24:04;22.90;;;13.00;;
6374;SDS011;35400;45.472;-122.822;2022-10-17T16:26:31;17.37;;;13.03;;